Hauptseite
METAR-TAF:

METAR-TAF

Flughäfen :

Whale Cove, Nunavut, Kanada

Breite: 62-14N, Länge: 092-36W, Höhe: 20 m

Beobachtung

Neuester Wetterbericht von vor 19 Stunden und 48 Minuten, um 22:00 UTC
Wind 17 kt aus Nord
Temperatur 11°C
Luftfeuchtigkeit 54%
Luftdruck 1014 hPa
Sichtweite: 24.1 km
Leicht bewölkt in der Höhe von 3000 ft
Leicht bewölkt in der Höhe von 10000 ft

METAR: CYXN 222200Z 35017KT 15SM FEW030 FEW100 11/02 A2995 RMK SC1AC1 SC TR 10.5/7.5/0.0MM/LAST STFD OBS/NEXT 251300Z SLP143

Zeit: 12:48 (17:48 UTC)


TAF: fehlend

Wetterbeobachtungen und Prognosen von mehr als 4000 Flughäfen (METAR und TAF Bericht).

Die verfügbaren Stationen werden durch gelbe und rote Markierungen auf der Karte dargestellt.

Führen Sie die Maus auf sie, um den Namen der Station zu sehen.

Darauf klicken, um die Beobachtung von Wetterbeobachtungen und Prognosen zu sehen.

Um die Karte zu ändern : klicken Sie auf den grünen Tasten mit einem schwarzen Kreuz Zum Vergrößern, auf den grünen Button mit einem Gedankenstrich zu verkleinern, oder auf die grünen Pfeile für benachbarte Karten.


METAR-TAF: